createdAt,value
2023-05-10T00:04:41.619Z,13.84
2023-05-10T00:09:42.775Z,13.84
2023-05-10T00:14:43.841Z,13.84
2023-05-10T00:19:44.961Z,13.84
2023-05-10T00:24:47.013Z,13.84
2023-05-10T00:29:46.099Z,13.84
2023-05-10T00:34:47.136Z,13.84
2023-05-10T00:39:48.214Z,13.84
2023-05-10T00:44:50.247Z,13.84
2023-05-10T00:49:49.268Z,12.85
2023-05-10T00:54:50.289Z,12.85
2023-05-10T00:59:52.317Z,12.85
2023-05-10T01:04:52.374Z,12.85
2023-05-10T01:09:53.392Z,12.85
2023-05-10T01:14:52.454Z,12.85
2023-05-10T01:19:53.492Z,12.85
2023-05-10T01:24:54.522Z,12.85
2023-05-10T01:30:09.197Z,12.85
2023-05-10T01:34:55.474Z,12.85
2023-05-10T01:39:56.526Z,12.85
2023-05-10T01:44:58.541Z,12.85
2023-05-10T01:49:57.616Z,12.85
2023-05-10T01:54:58.644Z,12.85
2023-05-10T02:00:00.656Z,12.85
2023-05-10T02:04:59.685Z,12.85
2023-05-10T02:10:01.750Z,12.85
2023-05-10T02:15:00.798Z,12.85
2023-05-10T02:20:02.852Z,12.85
2023-05-10T02:25:02.918Z,12.53
2023-05-10T02:30:01.951Z,12.85
2023-05-10T02:35:03.022Z,12.85
2023-05-10T02:40:04.125Z,12.85
2023-05-10T02:45:07.156Z,12.85
2023-05-10T02:50:08.232Z,12.85
2023-05-10T02:55:07.284Z,12.85
2023-05-10T03:00:08.307Z,12.85
2023-05-10T03:05:09.354Z,12.85
2023-05-10T03:10:10.400Z,12.85
2023-05-10T03:15:11.445Z,11.85
2023-05-10T03:20:13.521Z,11.85
2023-05-10T03:25:12.576Z,11.85
2023-05-10T03:30:13.599Z,11.85
2023-05-10T03:35:14.679Z,12.85
2023-05-10T03:40:16.987Z,12.85
2023-05-10T03:45:18.135Z,12.85
2023-05-10T03:50:17.435Z,11.85
2023-05-10T03:55:18.594Z,12.85
2023-05-10T04:00:19.728Z,12.85
2023-05-10T04:05:22.777Z,11.85
2023-05-10T04:10:22.814Z,12.85
2023-05-10T04:15:21.852Z,12.85
2023-05-10T04:20:23.889Z,12.85
2023-05-10T04:25:23.959Z,12.85
2023-05-10T04:30:23.005Z,12.85
2023-05-10T04:35:26.049Z,12.85
2023-05-10T04:40:26.064Z,12.85
2023-05-10T04:45:25.087Z,12.85
2023-05-10T04:50:27.126Z,12.85
2023-05-10T04:55:27.157Z,12.85
2023-05-10T05:00:25.187Z,12.85
2023-05-10T05:05:26.217Z,12.85
2023-05-10T05:10:28.288Z,12.85
2023-05-10T05:15:28.346Z,12.85
2023-05-10T05:20:27.381Z,13.84
2023-05-10T05:25:28.458Z,13.69
2023-05-10T05:30:29.513Z,13.84
2023-05-10T05:35:31.591Z,13.84
2023-05-10T05:40:30.621Z,13.84
2023-05-10T05:45:32.718Z,13.69
2023-05-10T05:50:33.731Z,13.69
2023-05-10T05:55:33.766Z,13.37
2023-05-10T06:00:32.817Z,13.37
2023-05-10T06:05:34.846Z,13.69
2023-05-10T06:10:34.866Z,13.53
2023-05-10T06:15:34.913Z,13.37
2023-05-10T06:20:34.005Z,12.88
2023-05-10T06:25:35.009Z,12.38
2023-05-10T06:30:36.071Z,12.04
2023-05-10T06:35:37.120Z,12.21
2023-05-10T06:40:39.157Z,12.72
2023-05-10T06:45:38.211Z,12.88
2023-05-10T06:50:40.251Z,13.05
2023-05-10T06:55:39.287Z,12.72
2023-05-10T07:00:40.356Z,13.05
2023-05-10T07:05:42.442Z,13.05
2023-05-10T07:10:41.474Z,13.53
2023-05-10T07:15:44.514Z,13.37
2023-05-10T07:20:43.562Z,13.53
2023-05-10T07:25:44.586Z,13.37
2023-05-10T07:30:45.724Z,13.37
2023-05-10T07:35:46.813Z,13.37
2023-05-10T07:40:47.876Z,13.37
2023-05-10T07:45:48.976Z,13.21
2023-05-10T07:50:49.979Z,12.88
2023-05-10T07:55:51.024Z,13.21
2023-05-10T08:00:53.072Z,13.05
2023-05-10T08:05:52.128Z,13.05
2023-05-10T08:10:54.216Z,12.88
2023-05-10T08:15:53.264Z,12.72
2023-05-10T08:20:54.309Z,12.55
2023-05-10T08:25:55.352Z,12.55
2023-05-10T08:30:56.393Z,12.55
2023-05-10T08:35:58.503Z,12.55
2023-05-10T08:40:57.715Z,12.38
2023-05-10T08:45:58.762Z,13.37
2023-05-10T08:51:00.853Z,13.20
2023-05-10T08:56:00.954Z,13.20
2023-05-10T09:01:00.999Z,13.03
2023-05-10T09:06:00.065Z,13.03
2023-05-10T09:11:02.134Z,12.85
2023-05-10T09:16:13.587Z,12.85
2023-05-10T09:21:01.101Z,12.85
2023-05-10T09:26:03.166Z,12.32
2023-05-10T09:31:03.271Z,12.32
2023-05-10T09:36:02.408Z,13.48
2023-05-10T09:41:03.530Z,12.50
2023-05-10T09:46:05.676Z,12.13
2023-05-10T09:51:04.702Z,11.76
2023-05-10T09:56:05.751Z,12.32
2023-05-10T10:01:07.917Z,12.68
2023-05-10T10:06:15.822Z,12.68
2023-05-10T10:11:09.055Z,12.68
2023-05-10T10:16:09.165Z,12.50
2023-05-10T10:21:08.207Z,11.95
2023-05-10T10:26:10.303Z,12.50
2023-05-10T10:31:08.408Z,11.52
2023-05-10T10:36:10.432Z,12.68
2023-05-10T10:41:10.503Z,12.32
2023-05-10T10:46:09.599Z,11.95
2023-05-10T10:51:13.007Z,11.95
2023-05-10T10:56:12.095Z,12.13
2023-05-10T11:01:17.207Z,13.30
2023-05-10T11:06:15.303Z,13.30
2023-05-10T11:11:15.349Z,13.11
2023-05-10T11:16:14.558Z,11.95
2023-05-10T11:21:15.747Z,12.50
2023-05-10T11:26:16.824Z,13.30
2023-05-10T11:31:17.977Z,12.93
2023-05-10T11:36:19.009Z,12.74
2023-05-10T11:41:20.086Z,12.74
2023-05-10T11:46:22.198Z,12.93
2023-05-10T11:51:21.316Z,12.74
2023-05-10T11:56:22.390Z,12.93
2023-05-10T12:01:24.480Z,12.55
2023-05-10T12:06:25.227Z,12.55
2023-05-10T12:11:26.985Z,12.74
2023-05-10T12:16:25.052Z,12.55
2023-05-10T12:21:31.476Z,12.16
2023-05-10T12:26:33.361Z,11.19
2023-05-10T12:31:37.422Z,11.00
2023-05-10T12:36:29.765Z,11.19
2023-05-10T12:42:02.986Z,12.16
2023-05-10T12:46:36.996Z,11.97
2023-05-10T12:51:50.222Z,11.97
2023-05-10T12:57:04.655Z,11.97
2023-05-10T19:10:26.669Z,10.24
2023-05-10T19:15:26.248Z,10.41
2023-05-10T19:20:29.164Z,10.41
2023-05-10T19:25:29.009Z,10.41
2023-05-10T19:30:28.674Z,10.07
2023-05-10T19:35:26.393Z,10.41
2023-05-10T19:40:26.986Z,9.75
2023-05-10T19:45:27.601Z,9.59
2023-05-10T19:50:28.188Z,9.59
2023-05-10T19:55:29.052Z,9.75
2023-05-10T20:00:30.074Z,9.91
2023-05-10T20:05:29.747Z,10.07
2023-05-10T20:10:30.728Z,9.91
2023-05-10T20:15:30.819Z,9.75
2023-05-10T20:20:31.436Z,9.75
2023-05-10T20:25:31.013Z,9.75
2023-05-10T20:30:31.500Z,9.59
2023-05-10T20:35:31.107Z,9.59
2023-05-10T20:40:30.703Z,9.42
2023-05-10T20:45:32.297Z,9.42
2023-05-10T20:50:30.903Z,9.42
2023-05-10T20:55:31.467Z,9.75
2023-05-10T21:00:31.742Z,9.91
2023-05-10T21:05:30.996Z,10.07
2023-05-10T21:10:32.121Z,9.91
2023-05-10T21:15:33.275Z,10.07
2023-05-10T21:20:34.394Z,10.07
2023-05-10T21:25:35.427Z,10.39
2023-05-10T21:30:36.466Z,9.39
2023-05-10T21:35:38.510Z,9.24
2023-05-10T21:40:37.547Z,9.24
2023-05-10T21:45:38.637Z,9.24
2023-05-10T21:50:39.645Z,9.24
2023-05-10T21:55:41.683Z,9.08
2023-05-10T22:00:40.728Z,9.24
2023-05-10T22:05:41.784Z,9.08
2023-05-10T22:10:43.004Z,9.08
2023-05-10T22:15:43.072Z,9.24
2023-05-10T22:20:44.257Z,9.08
2023-05-10T22:25:46.282Z,9.08
2023-05-10T22:30:45.557Z,9.08
2023-05-10T22:35:46.672Z,9.39
2023-05-10T22:40:47.738Z,9.39
2023-05-10T22:45:48.781Z,9.39
2023-05-10T22:50:49.850Z,9.24
2023-05-10T22:55:50.915Z,9.08
2023-05-10T23:00:51.963Z,9.08
2023-05-10T23:05:53.039Z,9.08
2023-05-10T23:10:54.092Z,9.08
2023-05-10T23:15:56.191Z,9.08
2023-05-10T23:20:55.205Z,9.24
2023-05-10T23:25:56.256Z,9.24
2023-05-10T23:30:58.297Z,9.39
2023-05-10T23:35:57.324Z,9.55
2023-05-10T23:40:58.361Z,9.55
2023-05-10T23:46:00.409Z,9.55
2023-05-10T23:51:00.409Z,9.55
2023-05-10T23:55:59.658Z,9.70
